Time;durP1;ratioP1;P1;durP2;ratioP2;P2;SDS_P1;SDS_P2;PMS_P1;PMS_P2;Temp;Humidity;BMP_temperature;BMP_pressure;BME280_temperature;BME280_humidity;BME280_pressure;Samples;Min_cycle;Max_cycle;Signal;HPM_P1;HPM_P2
2021/09/19 00:00:01;;;;;;;4.07;2.70;;;10.20;88.50;;;;;;4934950;28;20043;-69
2021/09/19 00:02:27;;;;;;;7.78;4.38;;;10.20;88.60;;;;;;4936498;28;20051;-69
2021/09/19 00:04:52;;;;;;;6.68;4.70;;;10.20;90.00;;;;;;4938207;28;20039;-69
2021/09/19 00:07:18;;;;;;;10.82;7.20;;;10.20;90.10;;;;;;4937980;28;20959;-70
2021/09/19 00:09:44;;;;;;;7.30;5.25;;;10.10;91.10;;;;;;4938273;28;20436;-70
2021/09/19 00:12:09;;;;;;;8.40;6.07;;;10.20;90.70;;;;;;4936959;28;20046;-70
2021/09/19 00:14:36;;;;;;;7.20;5.97;;;10.20;90.50;;;;;;4937514;28;20035;-69
2021/09/19 00:17:03;;;;;;;10.18;5.90;;;10.30;90.30;;;;;;4937493;28;20102;-69
2021/09/19 00:19:29;;;;;;;11.93;6.75;;;10.20;90.80;;;;;;4936952;28;20130;-69
2021/09/19 00:21:55;;;;;;;8.05;6.30;;;10.20;90.80;;;;;;4937771;28;20031;-69
2021/09/19 00:24:23;;;;;;;7.68;5.82;;;10.30;90.60;;;;;;4935921;28;20757;-69
2021/09/19 00:26:50;;;;;;;8.30;6.75;;;10.20;90.10;;;;;;4936106;28;20142;-70
2021/09/19 00:29:16;;;;;;;7.70;5.13;;;10.20;90.80;;;;;;4935868;28;20517;-69
2021/09/19 00:31:41;;;;;;;6.35;4.95;;;10.10;90.00;;;;;;4933737;28;20130;-69
2021/09/19 00:34:07;;;;;;;4.05;3.40;;;10.00;89.70;;;;;;4936267;28;20035;-69
2021/09/19 00:36:32;;;;;;;4.50;3.00;;;9.90;89.00;;;;;;4940453;28;20027;-70
2021/09/19 00:38:58;;;;;;;3.53;2.53;;;9.90;89.50;;;;;;4937366;28;20031;-69
2021/09/19 00:41:24;;;;;;;2.10;2.00;;;9.90;89.90;;;;;;4951994;28;20030;-69
2021/09/19 00:43:49;;;;;;;2.33;2.22;;;9.90;90.10;;;;;;4934110;28;20035;-69
2021/09/19 00:46:15;;;;;;;4.93;2.05;;;9.90;90.30;;;;;;4932519;28;20043;-69
2021/09/19 00:48:41;;;;;;;11.88;2.58;;;9.90;90.50;;;;;;4936937;28;20114;-69
2021/09/19 00:51:06;;;;;;;3.60;2.60;;;9.80;90.40;;;;;;4935069;28;20063;-69
2021/09/19 00:53:38;;;;;;;3.20;2.88;;;9.80;90.60;;;;;;4937259;28;20035;-69
2021/09/19 00:56:05;;;;;;;4.03;3.28;;;9.80;90.80;;;;;;4942891;28;20214;-69
2021/09/19 00:58:32;;;;;;;4.00;3.43;;;9.70;91.20;;;;;;4947723;28;20616;-69
2021/09/19 01:00:59;;;;;;;9.80;6.78;;;9.70;91.60;;;;;;4944017;28;20323;-68
2021/09/19 01:03:26;;;;;;;10.32;7.25;;;9.80;92.50;;;;;;4951034;28;20066;-69
2021/09/19 01:05:52;;;;;;;11.68;7.75;;;9.90;93.00;;;;;;4947459;28;20420;-69
2021/09/19 01:08:20;;;;;;;10.90;7.28;;;10.00;93.30;;;;;;4949559;28;20559;-69
2021/09/19 01:10:46;;;;;;;11.38;7.60;;;10.00;93.00;;;;;;4947360;28;20086;-69
2021/09/19 01:13:13;;;;;;;12.25;7.85;;;10.00;93.10;;;;;;4948176;28;20647;-69
2021/09/19 01:15:40;;;;;;;13.00;8.52;;;10.10;94.30;;;;;;4948620;28;20019;-68
2021/09/19 01:18:07;;;;;;;11.35;8.25;;;10.10;94.60;;;;;;4950799;28;20115;-68
2021/09/19 01:20:34;;;;;;;10.13;7.25;;;10.20;94.10;;;;;;4946784;28;20389;-68
2021/09/19 01:23:09;;;;;;;12.45;7.80;;;10.10;93.60;;;;;;4941913;28;20043;-68
2021/09/19 01:25:35;;;;;;;11.45;7.78;;;10.10;94.10;;;;;;4949959;28;20031;-68
2021/09/19 01:28:02;;;;;;;11.88;7.18;;;10.20;93.70;;;;;;4943842;28;20031;-68
2021/09/19 01:30:27;;;;;;;12.48;8.23;;;10.20;93.50;;;;;;4946124;28;20027;-68
2021/09/19 01:32:53;;;;;;;14.50;8.30;;;10.20;93.60;;;;;;4960123;28;20031;-67
2021/09/19 01:35:19;;;;;;;14.70;8.23;;;10.20;94.10;;;;;;4943511;28;20028;-67
2021/09/19 01:37:44;;;;;;;15.48;8.93;;;10.30;94.30;;;;;;4948062;28;20220;-67
2021/09/19 01:40:11;;;;;;;16.85;9.40;;;10.40;94.50;;;;;;4944755;28;20038;-68
2021/09/19 01:42:37;;;;;;;14.48;8.77;;;10.40;94.60;;;;;;4940904;28;20150;-68
2021/09/19 01:45:03;;;;;;;9.10;6.63;;;10.50;95.20;;;;;;4944434;28;20123;-68
2021/09/19 01:47:29;;;;;;;6.60;4.63;;;10.50;93.60;;;;;;4944493;28;20035;-68
2021/09/19 01:49:55;;;;;;;8.80;5.68;;;10.30;92.00;;;;;;4946061;28;20121;-68
2021/09/19 01:52:21;;;;;;;11.25;7.90;;;10.40;92.50;;;;;;4956709;28;20413;-68
2021/09/19 01:54:47;;;;;;;9.52;6.43;;;10.40;93.20;;;;;;4944354;28;20110;-68
2021/09/19 01:57:22;;;;;;;10.07;6.85;;;10.30;91.90;;;;;;4946620;28;20509;-69
2021/09/19 01:59:49;;;;;;;12.05;6.50;;;10.10;92.10;;;;;;4943428;28;20027;-68
2021/09/19 02:02:18;;;;;;;8.07;5.78;;;10.10;92.40;;;;;;4943924;28;20063;-68
2021/09/19 02:04:44;;;;;;;9.93;6.57;;;9.90;92.40;;;;;;4943032;28;20023;-68
2021/09/19 02:07:10;;;;;;;14.15;8.07;;;10.00;93.40;;;;;;4958745;28;20047;-69
2021/09/19 02:09:36;;;;;;;13.30;9.00;;;10.00;94.00;;;;;;4941123;28;20432;-69
2021/09/19 02:12:02;;;;;;;12.90;8.80;;;10.10;94.30;;;;;;4945663;28;20035;-68
2021/09/19 02:14:28;;;;;;;13.82;8.75;;;10.20;94.70;;;;;;4962645;28;20046;-69
2021/09/19 02:16:54;;;;;;;14.13;8.43;;;10.20;94.80;;;;;;4942894;28;20023;-69
2021/09/19 02:19:19;;;;;;;14.38;8.52;;;10.30;94.80;;;;;;4963151;28;20051;-69
2021/09/19 02:21:46;;;;;;;12.50;8.98;;;10.30;94.70;;;;;;4942143;28;20035;-68
2021/09/19 02:24:11;;;;;;;13.95;8.93;;;10.30;94.70;;;;;;4942086;28;20488;-69
2021/09/19 02:26:37;;;;;;;12.55;8.65;;;10.40;95.20;;;;;;4945552;28;20049;-68
2021/09/19 02:29:03;;;;;;;12.88;8.55;;;10.40;95.40;;;;;;4946775;28;20046;-69
2021/09/19 02:31:29;;;;;;;12.15;8.50;;;10.50;94.70;;;;;;4949282;28;20042;-68
2021/09/19 02:33:55;;;;;;;12.88;8.20;;;10.40;94.60;;;;;;4949907;28;20043;-68
2021/09/19 02:36:20;;;;;;;10.80;7.93;;;10.40;94.50;;;;;;4944699;28;20566;-68
2021/09/19 02:38:46;;;;;;;11.10;7.43;;;10.40;94.50;;;;;;4969121;28;20027;-69
2021/09/19 02:41:11;;;;;;;12.27;7.53;;;10.30;94.40;;;;;;4947377;28;20031;-68
2021/09/19 02:43:37;;;;;;;13.98;8.70;;;10.30;94.70;;;;;;4942790;28;20047;-68
2021/09/19 02:46:03;;;;;;;12.10;7.88;;;10.40;94.80;;;;;;4946777;28;20067;-68
2021/09/19 02:48:29;;;;;;;15.95;8.77;;;10.40;95.10;;;;;;4944505;28;20079;-68
2021/09/19 02:50:54;;;;;;;11.38;6.53;;;10.50;95.70;;;;;;4943885;28;20061;-68
2021/09/19 02:53:20;;;;;;;4.82;4.03;;;10.40;93.80;;;;;;4947673;28;20484;-68
2021/09/19 02:55:46;;;;;;;6.00;4.88;;;10.30;92.30;;;;;;4946007;28;20035;-68
2021/09/19 02:58:12;;;;;;;6.78;4.90;;;10.20;91.70;;;;;;4945597;28;20027;-68
2021/09/19 03:00:38;;;;;;;6.72;5.05;;;10.10;91.10;;;;;;4944775;28;20062;-67
2021/09/19 03:03:04;;;;;;;9.27;5.60;;;10.00;90.70;;;;;;4946726;28;20040;-67
2021/09/19 03:05:29;;;;;;;8.18;5.38;;;10.00;91.00;;;;;;4945985;28;20035;-68
2021/09/19 03:07:55;;;;;;;45.67;6.07;;;9.90;91.90;;;;;;4956811;28;20043;-70
2021/09/19 03:10:21;;;;;;;14.05;6.95;;;9.80;92.50;;;;;;4959495;28;20994;-68
2021/09/19 03:12:47;;;;;;;12.07;7.22;;;9.80;93.30;;;;;;4944963;28;20075;-68
2021/09/19 03:15:13;;;;;;;9.30;6.40;;;9.90;94.50;;;;;;4945435;28;20176;-68
2021/09/19 03:17:39;;;;;;;10.40;7.10;;;9.80;93.70;;;;;;4947764;28;20031;-68
2021/09/19 03:20:07;;;;;;;8.27;6.40;;;9.90;93.70;;;;;;4947093;29;20077;-68
2021/09/19 03:22:33;;;;;;;6.77;4.70;;;9.90;93.40;;;;;;4945468;28;20027;-67
2021/09/19 03:24:59;;;;;;;35.08;5.88;;;9.60;91.00;;;;;;4944368;28;20131;-68
2021/09/19 03:27:25;;;;;;;8.88;6.57;;;9.50;92.00;;;;;;4942304;28;20126;-67
2021/09/19 03:29:50;;;;;;;12.23;6.88;;;9.40;92.70;;;;;;4948481;28;20035;-68
2021/09/19 03:32:16;;;;;;;9.32;6.45;;;9.50;93.70;;;;;;4946730;28;20405;-68
2021/09/19 03:34:41;;;;;;;14.43;6.72;;;9.60;94.10;;;;;;4945149;28;20023;-68
2021/09/19 03:37:07;;;;;;;8.70;6.25;;;9.60;94.20;;;;;;4946357;28;20102;-67
2021/09/19 03:39:33;;;;;;;10.38;6.85;;;9.60;94.30;;;;;;4944203;28;20032;-69
2021/09/19 03:41:58;;;;;;;9.50;6.78;;;9.70;94.40;;;;;;4946064;28;20038;-68
2021/09/19 03:44:24;;;;;;;12.07;7.63;;;9.60;94.30;;;;;;4941640;28;20536;-68
2021/09/19 03:46:49;;;;;;;10.10;7.25;;;9.70;94.40;;;;;;4948583;28;20093;-68
2021/09/19 03:49:15;;;;;;;11.07;7.20;;;9.70;94.50;;;;;;4939178;28;20051;-68
2021/09/19 03:51:41;;;;;;;9.82;7.10;;;9.80;94.60;;;;;;4943562;28;20031;-69
2021/09/19 03:54:06;;;;;;;11.15;7.22;;;9.80;94.50;;;;;;4947824;28;20036;-69
2021/09/19 03:56:32;;;;;;;12.77;6.95;;;9.80;94.50;;;;;;4947281;28;20082;-69
2021/09/19 03:58:58;;;;;;;9.45;6.78;;;9.80;94.40;;;;;;4942722;28;20035;-69
2021/09/19 04:01:23;;;;;;;12.57;7.05;;;9.80;94.50;;;;;;4942240;28;20082;-69
2021/09/19 04:03:49;;;;;;;11.60;7.70;;;9.90;94.40;;;;;;4943589;28;20078;-67
2021/09/19 04:06:15;;;;;;;12.57;7.60;;;9.90;94.60;;;;;;4944695;28;20416;-69
2021/09/19 04:08:40;;;;;;;9.77;5.93;;;9.90;94.80;;;;;;4945183;28;20035;-67
2021/09/19 04:11:06;;;;;;;8.57;5.35;;;9.80;94.10;;;;;;4944562;28;20161;-68
2021/09/19 04:13:31;;;;;;;6.57;5.00;;;9.70;92.90;;;;;;4947483;28;20039;-67
2021/09/19 04:15:57;;;;;;;5.97;4.57;;;9.70;92.50;;;;;;4950033;28;20030;-69
2021/09/19 04:18:23;;;;;;;5.80;4.63;;;9.60;91.00;;;;;;4949260;28;20094;-68
2021/09/19 04:20:48;;;;;;;6.88;5.07;;;9.50;90.50;;;;;;4947980;29;20035;-68
2021/09/19 04:23:14;;;;;;;5.53;4.80;;;9.40;90.70;;;;;;4944705;28;20050;-68
2021/09/19 04:25:40;;;;;;;8.38;5.35;;;9.50;91.10;;;;;;4959959;28;20026;-68
2021/09/19 04:28:06;;;;;;;9.38;5.05;;;9.40;91.30;;;;;;4945538;28;20041;-68
2021/09/19 04:30:31;;;;;;;8.77;5.80;;;9.50;91.50;;;;;;4944031;28;20087;-68
2021/09/19 04:32:57;;;;;;;9.98;6.80;;;9.40;92.00;;;;;;4944884;28;20484;-68
2021/09/19 04:35:23;;;;;;;8.32;5.97;;;9.10;92.90;;;;;;4945201;29;20019;-67
2021/09/19 04:37:48;;;;;;;7.10;4.78;;;9.10;93.30;;;;;;4944402;28;20042;-68
2021/09/19 04:40:14;;;;;;;5.43;4.32;;;9.10;92.10;;;;;;4945080;28;20023;-70
2021/09/19 04:42:40;;;;;;;4.82;3.05;;;8.90;91.50;;;;;;4945755;28;20023;-68
2021/09/19 04:45:07;;;;;;;6.03;3.47;;;8.90;91.50;;;;;;4946492;28;20094;-68
2021/09/19 04:47:33;;;;;;;8.00;4.20;;;8.80;92.00;;;;;;4943560;28;20027;-68
2021/09/19 04:49:59;;;;;;;4.43;3.17;;;8.80;91.90;;;;;;4943298;28;20042;-67
2021/09/19 04:52:25;;;;;;;3.92;3.22;;;8.80;91.80;;;;;;4944626;28;20137;-67
2021/09/19 04:54:50;;;;;;;4.82;3.60;;;8.80;92.00;;;;;;4943805;28;20027;-68
2021/09/19 04:57:16;;;;;;;52.50;5.40;;;8.80;92.00;;;;;;4942691;28;20500;-67
2021/09/19 04:59:42;;;;;;;5.70;3.90;;;8.80;92.00;;;;;;4947547;28;20143;-68
2021/09/19 05:02:07;;;;;;;5.25;3.90;;;8.80;92.00;;;;;;4941596;28;20063;-68
2021/09/19 05:04:33;;;;;;;7.75;4.53;;;8.80;91.90;;;;;;4961891;28;20034;-67
2021/09/19 05:06:59;;;;;;;4.10;3.28;;;8.80;91.80;;;;;;4945536;28;20425;-68
2021/09/19 05:09:25;;;;;;;3.40;3.10;;;8.80;91.60;;;;;;4943207;28;20033;-68
2021/09/19 05:11:50;;;;;;;4.40;3.10;;;8.80;90.70;;;;;;4942707;28;20123;-68
2021/09/19 05:14:16;;;;;;;2.67;2.33;;;8.70;90.60;;;;;;4943200;28;20039;-68
2021/09/19 05:16:41;;;;;;;2.67;2.47;;;8.60;90.40;;;;;;4945475;28;20042;-68
2021/09/19 05:19:07;;;;;;;3.50;2.88;;;8.50;90.50;;;;;;4943868;28;20086;-68
2021/09/19 05:21:33;;;;;;;5.90;3.95;;;8.30;90.70;;;;;;4943034;28;20031;-68
2021/09/19 05:23:59;;;;;;;4.65;3.55;;;8.30;91.50;;;;;;4945336;28;20666;-68
2021/09/19 05:26:25;;;;;;;7.35;5.03;;;8.40;92.30;;;;;;4944576;28;20043;-68
2021/09/19 05:28:51;;;;;;;8.88;5.70;;;8.50;93.00;;;;;;4944569;28;20035;-67
2021/09/19 05:31:17;;;;;;;6.53;4.63;;;8.60;94.00;;;;;;4942186;28;20105;-68
2021/09/19 05:33:44;;;;;;;6.50;4.60;;;8.70;94.80;;;;;;4961546;28;20031;-68
2021/09/19 05:36:10;;;;;;;6.13;4.40;;;8.60;93.20;;;;;;4945397;28;20043;-68
2021/09/19 05:38:35;;;;;;;6.53;4.35;;;8.50;93.80;;;;;;4941942;28;20035;-69
2021/09/19 05:41:01;;;;;;;7.13;5.03;;;8.20;94.10;;;;;;4940634;28;20059;-69
2021/09/19 05:43:26;;;;;;;7.35;5.20;;;8.40;95.00;;;;;;4945201;28;20043;-69
2021/09/19 05:45:52;;;;;;;5.20;4.20;;;8.40;94.20;;;;;;4941417;28;20031;-69
2021/09/19 05:48:18;;;;;;;6.28;5.03;;;8.60;93.80;;;;;;4943582;28;20039;-69
2021/09/19 05:50:45;;;;;;;5.07;4.10;;;8.70;94.20;;;;;;4940847;28;20031;-69
2021/09/19 05:53:10;;;;;;;6.75;4.72;;;8.80;93.80;;;;;;4944243;28;20047;-69
2021/09/19 05:55:36;;;;;;;6.93;4.55;;;8.70;93.40;;;;;;4945791;28;20453;-69
2021/09/19 05:58:01;;;;;;;6.47;4.22;;;8.80;94.00;;;;;;4945654;28;20020;-68
2021/09/19 06:00:27;;;;;;;6.20;4.88;;;8.80;93.70;;;;;;4943809;28;20034;-69
2021/09/19 06:02:53;;;;;;;6.38;4.78;;;8.80;94.70;;;;;;4943903;28;20031;-69
2021/09/19 06:05:18;;;;;;;6.30;4.75;;;8.80;95.40;;;;;;4948935;28;20741;-69
2021/09/19 06:07:44;;;;;;;7.53;5.25;;;8.90;95.30;;;;;;4964937;28;20043;-68
2021/09/19 06:10:10;;;;;;;6.13;4.35;;;9.00;95.10;;;;;;4963533;28;20035;-69
2021/09/19 06:12:36;;;;;;;6.20;4.57;;;9.10;95.10;;;;;;4950107;28;20043;-69
2021/09/19 06:15:03;;;;;;;6.50;4.88;;;9.20;95.20;;;;;;4947485;28;20520;-69
2021/09/19 06:17:29;;;;;;;10.05;5.78;;;9.20;95.50;;;;;;4951344;28;20034;-69
2021/09/19 06:19:54;;;;;;;11.18;6.32;;;9.30;96.30;;;;;;4948896;28;20103;-70
2021/09/19 06:22:20;;;;;;;10.07;6.28;;;9.40;97.20;;;;;;4946170;28;20031;-68
2021/09/19 06:24:46;;;;;;;10.85;7.25;;;9.50;97.80;;;;;;4950313;28;20389;-67
2021/09/19 06:27:12;;;;;;;10.85;6.50;;;9.60;98.10;;;;;;4958685;28;20039;-69
2021/09/19 06:29:38;;;;;;;10.32;6.78;;;9.60;98.20;;;;;;4947143;28;20067;-69
2021/09/19 06:32:05;;;;;;;12.48;7.25;;;9.70;98.30;;;;;;4944046;28;20039;-69
2021/09/19 06:34:30;;;;;;;10.40;6.75;;;9.80;98.50;;;;;;4965291;28;21046;-69
2021/09/19 06:36:56;;;;;;;12.25;7.25;;;10.00;98.70;;;;;;4945120;28;20033;-69
2021/09/19 06:39:21;;;;;;;12.15;6.80;;;10.00;98.70;;;;;;4947566;28;20466;-69
2021/09/19 06:41:51;;;;;;;12.52;7.13;;;10.10;98.80;;;;;;4944716;28;20103;-68
2021/09/19 06:44:17;;;;;;;9.65;6.95;;;10.20;98.90;;;;;;4947578;28;20031;-69
2021/09/19 06:46:43;;;;;;;11.20;6.85;;;10.20;98.90;;;;;;4944041;28;23214;-69
2021/09/19 06:49:08;;;;;;;14.32;6.47;;;10.30;98.80;;;;;;4939849;28;20031;-68
2021/09/19 06:51:34;;;;;;;11.02;7.60;;;10.40;99.20;;;;;;4945395;28;20031;-68
2021/09/19 06:54:00;;;;;;;11.02;6.88;;;10.50;99.00;;;;;;4942246;28;20441;-68
2021/09/19 06:56:26;;;;;;;10.80;6.40;;;10.50;98.90;;;;;;4944768;28;20574;-69
2021/09/19 06:58:52;;;;;;;12.00;6.65;;;10.60;98.60;;;;;;4944912;28;20027;-69
2021/09/19 07:01:21;;;;;;;10.25;7.75;;;10.60;98.80;;;;;;4944620;28;20083;-69
2021/09/19 07:03:47;;;;;;;11.82;7.20;;;10.70;98.70;;;;;;4943152;28;20118;-69
2021/09/19 07:06:13;;;;;;;14.13;7.57;;;10.80;98.70;;;;;;4945108;28;20042;-69
2021/09/19 07:08:39;;;;;;;10.25;7.35;;;10.80;98.70;;;;;;4944217;28;20480;-68
2021/09/19 07:11:04;;;;;;;13.63;8.00;;;10.90;99.00;;;;;;4944801;28;20035;-70
2021/09/19 07:13:30;;;;;;;12.73;8.20;;;11.00;99.00;;;;;;4947044;28;20043;-69
2021/09/19 07:15:56;;;;;;;9.45;7.30;;;11.10;99.10;;;;;;4944581;28;20118;-69
2021/09/19 07:18:23;;;;;;;13.38;7.85;;;11.10;99.00;;;;;;4948636;28;20058;-69
2021/09/19 07:20:49;;;;;;;12.98;8.00;;;11.20;98.90;;;;;;4946089;28;20031;-69
2021/09/19 07:23:15;;;;;;;11.98;7.38;;;11.20;99.00;;;;;;4947389;28;20110;-68
2021/09/19 07:25:42;;;;;;;12.48;7.95;;;11.30;99.20;;;;;;4945217;28;22114;-69
2021/09/19 07:28:08;;;;;;;11.70;7.25;;;11.40;98.80;;;;;;4944342;28;20023;-69
2021/09/19 07:30:34;;;;;;;11.60;7.53;;;11.40;98.90;;;;;;4945342;28;20122;-69
2021/09/19 07:33:01;;;;;;;14.80;8.73;;;11.50;99.20;;;;;;4948338;28;20034;-69
2021/09/19 07:35:27;;;;;;;11.77;7.57;;;11.60;99.10;;;;;;4945489;28;20031;-69
2021/09/19 07:37:53;;;;;;;14.05;8.98;;;11.60;98.70;;;;;;4946347;28;20054;-69
2021/09/19 07:40:20;;;;;;;11.07;7.90;;;11.70;99.00;;;;;;4946354;28;20105;-71
2021/09/19 07:42:46;;;;;;;13.40;8.77;;;11.80;98.90;;;;;;4947293;28;20448;-69
2021/09/19 07:45:13;;;;;;;13.85;8.23;;;11.90;99.10;;;;;;4944018;28;20035;-69
2021/09/19 07:47:39;;;;;;;15.43;9.57;;;12.00;98.90;;;;;;4947679;28;20035;-69
2021/09/19 07:50:06;;;;;;;12.60;7.85;;;12.10;99.20;;;;;;4943487;28;20031;-69
2021/09/19 07:52:32;;;;;;;13.82;8.57;;;12.20;98.40;;;;;;4959746;28;20046;-69
2021/09/19 07:54:58;;;;;;;13.93;9.35;;;12.30;99.10;;;;;;4946386;28;20027;-69
2021/09/19 07:57:24;;;;;;;14.20;9.15;;;12.40;98.80;;;;;;4942273;28;20038;-69
2021/09/19 07:59:51;;;;;;;15.90;9.63;;;12.50;99.00;;;;;;4945338;28;20032;-69
2021/09/19 08:02:17;;;;;;;15.05;8.52;;;12.70;98.10;;;;;;4944721;28;20039;-69
2021/09/19 08:04:43;;;;;;;15.07;9.43;;;12.70;97.50;;;;;;4944297;28;20027;-69
2021/09/19 08:07:09;;;;;;;14.93;9.35;;;12.80;97.40;;;;;;4943452;28;20027;-69
2021/09/19 08:09:35;;;;;;;11.77;8.88;;;12.90;98.10;;;;;;4949488;28;20038;-69
2021/09/19 08:12:01;;;;;;;14.75;9.50;;;13.00;97.20;;;;;;4947526;28;20031;-68
2021/09/19 08:14:27;;;;;;;15.07;9.25;;;13.10;97.60;;;;;;4944168;28;20038;-68
2021/09/19 08:16:52;;;;;;;14.30;9.52;;;13.10;96.70;;;;;;4940279;28;20034;-70
2021/09/19 08:19:18;;;;;;;13.90;9.35;;;13.20;97.00;;;;;;4946445;28;20043;-69
2021/09/19 08:21:45;;;;;;;15.48;10.20;;;13.30;97.30;;;;;;4943783;28;20019;-69
2021/09/19 08:24:11;;;;;;;14.18;9.25;;;13.40;96.20;;;;;;4945913;28;20073;-69
2021/09/19 08:26:38;;;;;;;13.15;8.77;;;13.50;95.80;;;;;;4946055;28;20074;-68
2021/09/19 08:29:05;;;;;;;17.25;9.20;;;13.50;96.70;;;;;;4946252;28;20034;-67
2021/09/19 08:31:30;;;;;;;15.07;9.73;;;13.60;96.10;;;;;;4943944;28;20551;-67
2021/09/19 08:33:56;;;;;;;18.20;9.25;;;13.80;96.80;;;;;;4945013;28;20031;-68
2021/09/19 08:36:22;;;;;;;16.42;10.18;;;13.90;96.80;;;;;;4943809;28;20399;-68
2021/09/19 08:38:47;;;;;;;13.20;9.18;;;13.80;96.10;;;;;;4944812;28;20027;-68
2021/09/19 08:41:18;;;;;;;17.60;9.73;;;13.90;95.70;;;;;;4947234;28;20101;-68
2021/09/19 08:43:44;;;;;;;13.70;9.55;;;14.00;96.80;;;;;;4944923;28;20139;-67
2021/09/19 08:46:11;;;;;;;17.75;10.50;;;14.00;95.10;;;;;;4946164;28;20358;-67
2021/09/19 08:48:38;;;;;;;16.70;10.30;;;14.10;96.30;;;;;;4945545;28;20031;-68
2021/09/19 08:51:04;;;;;;;16.45;9.10;;;14.30;96.20;;;;;;4942282;28;20107;-67
2021/09/19 08:53:31;;;;;;;13.75;9.45;;;14.30;95.10;;;;;;4945390;28;20397;-68
2021/09/19 08:55:58;;;;;;;13.77;9.57;;;14.30;94.80;;;;;;4944704;28;20027;-68
2021/09/19 08:58:24;;;;;;;14.48;9.75;;;14.40;95.20;;;;;;4942720;28;20444;-67
2021/09/19 09:00:51;;;;;;;12.48;9.02;;;14.50;95.60;;;;;;4959991;28;20773;-68
2021/09/19 09:03:20;;;;;;;15.48;10.25;;;14.40;94.10;;;;;;4945209;28;20544;-67
2021/09/19 09:05:55;;;;;;;12.73;9.13;;;14.50;94.10;;;;;;4942811;28;20042;-68
2021/09/19 09:08:21;;;;;;;19.17;11.13;;;14.50;94.20;;;;;;4942945;28;20031;-68
2021/09/19 09:10:50;;;;;;;15.85;9.68;;;14.70;94.80;;;;;;4958821;28;21040;-68
2021/09/19 09:13:23;;;;;;;;;;;14.80;92.20;;;;;;4959818;28;20035;-68
2021/09/19 09:15:51;;;;;;;15.27;9.77;;;14.90;94.30;;;;;;4942158;28;20319;-68
2021/09/19 09:18:34;;;;;;;15.00;9.40;;;15.00;93.90;;;;;;4943463;28;20023;-69
2021/09/19 09:21:26;;;;;;;14.45;9.50;;;15.10;93.40;;;;;;4942910;28;20035;-68
2021/09/19 09:23:55;;;;;;;14.57;9.38;;;15.20;94.00;;;;;;4951327;28;20039;-68
2021/09/19 09:26:27;;;;;;;15.10;9.93;;;15.30;92.60;;;;;;4943198;28;20707;-69
2021/09/19 09:29:09;;;;;;;14.85;9.63;;;15.30;92.90;;;;;;4946097;28;20046;-69
2021/09/19 09:31:37;;;;;;;16.33;10.55;;;15.40;92.60;;;;;;4945393;28;20035;-70
2021/09/19 09:34:07;;;;;;;;;;;15.50;93.20;;;;;;4948443;28;20038;-70
2021/09/19 09:36:35;;;;;;;15.07;9.93;;;15.50;93.30;;;;;;4945301;28;19914;-69
2021/09/19 09:39:01;;;;;;;14.10;9.63;;;15.70;92.60;;;;;;4949741;28;20446;-70
2021/09/19 09:41:41;;;;;;;17.75;10.82;;;15.70;91.40;;;;;;4948256;28;20122;-68
2021/09/19 09:44:27;;;;;;;16.35;9.80;;;15.40;91.60;;;;;;4950170;28;20033;-68
2021/09/19 09:46:53;;;;;;;16.92;10.40;;;15.30;92.70;;;;;;4948351;28;20035;-68
2021/09/19 09:49:35;;;;;;;16.98;10.65;;;15.40;92.80;;;;;;4951354;28;20093;-68
2021/09/19 09:52:09;;;;;;;23.70;15.65;;;15.40;91.90;;;;;;4960372;28;20031;-68
2021/09/19 09:54:47;;;;;;;15.93;9.57;;;15.20;91.60;;;;;;4949912;28;20520;-68
2021/09/19 09:57:20;;;;;;;;;;;15.30;92.90;;;;;;4968426;28;20396;-68
2021/09/19 09:59:47;;;;;;;16.67;10.68;;;15.30;93.10;;;;;;4962198;28;20790;-68
2021/09/19 10:02:13;;;;;;;17.05;11.05;;;15.40;93.20;;;;;;4946210;28;20504;-69
2021/09/19 10:04:39;;;;;;;17.92;10.32;;;15.50;93.10;;;;;;4947178;28;20086;-68
2021/09/19 10:07:05;;;;;;;16.05;10.88;;;15.60;93.20;;;;;;4942573;28;20676;-68
2021/09/19 10:09:30;;;;;;;16.45;11.27;;;15.70;91.90;;;;;;4948052;28;20031;-68
2021/09/19 10:11:56;;;;;;;17.05;10.82;;;15.70;91.00;;;;;;4939729;28;20027;-68
2021/09/19 10:14:22;;;;;;;19.30;11.90;;;15.80;92.70;;;;;;4947779;28;20035;-69
2021/09/19 10:16:48;;;;;;;16.38;11.48;;;15.80;91.50;;;;;;4960735;28;20981;-68
2021/09/19 10:19:19;;;;;;;17.23;11.45;;;15.70;91.80;;;;;;4948560;28;20110;-67
2021/09/19 10:21:46;;;;;;;18.60;11.77;;;15.70;90.40;;;;;;4946002;28;20019;-67
2021/09/19 10:24:12;;;;;;;17.03;11.60;;;15.80;92.30;;;;;;4949426;28;20070;-67
2021/09/19 10:26:51;;;;;;;19.30;11.95;;;15.80;91.20;;;;;;4948230;28;20035;-68
2021/09/19 10:29:19;;;;;;;21.33;12.93;;;15.80;90.60;;;;;;4952111;28;20094;-68
2021/09/19 10:31:45;;;;;;;19.67;13.35;;;15.90;91.50;;;;;;4948765;28;20050;-68
2021/09/19 10:34:23;;;;;;;18.75;12.98;;;15.90;91.80;;;;;;4950180;28;20023;-67
2021/09/19 10:36:51;;;;;;;19.45;12.15;;;16.00;91.40;;;;;;4948597;29;20045;-68
2021/09/19 10:39:25;;;;;;;17.60;12.20;;;15.80;91.30;;;;;;4948087;28;20026;-68
2021/09/19 10:42:40;;;;;;;19.55;12.70;;;15.90;90.60;;;;;;4948307;28;20315;-68
2021/09/19 10:45:11;;;;;;;19.15;12.90;;;15.90;91.20;;;;;;4946650;28;20051;-67
2021/09/19 10:47:40;;;;;;;18.15;12.20;;;15.90;91.30;;;;;;4950626;28;20031;-67
2021/09/19 10:50:21;;;;;;;18.98;13.50;;;15.90;90.80;;;;;;4949585;28;20023;-67
2021/09/19 10:52:50;;;;;;;20.52;13.27;;;16.00;91.50;;;;;;4944964;28;20538;-67
2021/09/19 10:55:53;;;;;;;19.15;14.55;;;16.00;90.50;;;;;;4947718;28;20122;-68
2021/09/19 10:58:33;;;;;;;22.10;13.15;;;16.10;90.90;;;;;;4948633;29;20031;-68
2021/09/19 11:01:17;;;;;;;19.13;13.93;;;16.20;91.60;;;;;;4950729;28;20046;-68
2021/09/19 11:04:05;;;;;;;19.70;13.15;;;16.20;90.80;;;;;;4949174;29;20055;-67
2021/09/19 11:06:32;;;;;;;18.13;12.50;;;16.30;90.60;;;;;;4939220;28;20039;-67
2021/09/19 11:09:18;;;;;;;17.30;11.95;;;16.30;90.30;;;;;;4963427;28;20098;-67
2021/09/19 11:12:19;;;;;;;16.52;11.77;;;16.30;89.80;;;;;;4949653;28;20039;-68
2021/09/19 11:15:05;;;;;;;19.38;13.20;;;16.20;88.90;;;;;;4948986;28;20023;-67
2021/09/19 11:17:34;;;;;;;18.08;12.73;;;16.20;88.70;;;;;;4963676;28;20031;-68
2021/09/19 11:20:15;;;;;;;18.88;12.88;;;16.20;89.20;;;;;;4948466;28;20027;-67
2021/09/19 11:22:42;;;;;;;19.30;12.90;;;16.20;89.80;;;;;;4947469;28;20808;-67
2021/09/19 11:25:09;;;;;;;18.27;12.32;;;16.20;88.40;;;;;;4963713;28;20039;-68
2021/09/19 11:27:37;;;;;;;19.10;13.13;;;16.30;88.20;;;;;;4950794;28;20059;-68
2021/09/19 11:30:04;;;;;;;16.33;12.10;;;16.30;88.70;;;;;;4952135;28;20043;-67
2021/09/19 11:32:30;;;;;;;16.05;11.32;;;16.30;87.50;;;;;;4946796;28;20047;-68
2021/09/19 11:34:57;;;;;;;19.85;12.48;;;16.40;88.60;;;;;;4946134;28;20047;-67
2021/09/19 11:37:25;;;;;;;16.67;12.05;;;16.60;89.10;;;;;;4950316;28;20047;-67
2021/09/19 11:39:51;;;;;;;16.33;11.25;;;16.50;85.10;;;;;;4951203;28;20024;-67
2021/09/19 11:42:17;;;;;;;15.93;10.80;;;16.40;84.90;;;;;;4949302;28;20031;-67
2021/09/19 11:44:46;;;;;;;16.98;11.02;;;16.50;85.00;;;;;;4947625;28;20039;-67
2021/09/19 11:47:18;;;;;;;21.88;13.55;;;16.60;85.50;;;;;;4947879;28;20027;-67
2021/09/19 11:49:45;;;;;;;21.38;13.23;;;16.70;87.60;;;;;;4950403;28;20042;-67
2021/09/19 11:52:12;;;;;;;21.35;13.68;;;16.70;87.70;;;;;;4945567;28;20024;-67
2021/09/19 11:54:40;;;;;;;16.75;11.70;;;16.90;88.80;;;;;;4962019;28;20041;-67
2021/09/19 11:57:06;;;;;;;17.83;12.43;;;16.80;85.90;;;;;;4947341;28;20045;-67
2021/09/19 11:59:31;;;;;;;21.05;12.95;;;16.60;86.10;;;;;;4949848;28;20480;-67
2021/09/19 12:01:58;;;;;;;18.63;12.00;;;16.60;85.80;;;;;;4947163;28;20130;-68
2021/09/19 12:04:25;;;;;;;18.13;12.32;;;16.70;85.30;;;;;;4948250;28;20031;-67
2021/09/19 12:06:51;;;;;;;17.58;11.98;;;16.80;85.10;;;;;;4963849;28;20027;-67
2021/09/19 12:09:21;;;;;;;16.30;11.48;;;16.80;86.40;;;;;;4943997;28;20102;-67
2021/09/19 12:11:50;;;;;;;17.40;13.00;;;16.90;86.40;;;;;;4950096;28;20034;-67
2021/09/19 12:14:20;;;;;;;18.55;11.65;;;16.90;87.30;;;;;;4946313;28;20035;-70
2021/09/19 12:16:56;;;;;;;17.88;12.50;;;17.00;85.80;;;;;;4946519;28;20042;-68
2021/09/19 12:19:21;;;;;;;16.33;10.43;;;17.10;86.90;;;;;;4947101;29;20023;-67
2021/09/19 12:21:59;;;;;;;16.60;11.70;;;17.10;83.90;;;;;;4949731;28;20034;-67
2021/09/19 12:24:27;;;;;;;15.73;11.88;;;17.00;84.30;;;;;;4945221;28;20162;-67
2021/09/19 12:27:07;;;;;;;;;;;17.00;82.70;;;;;;4962149;28;20036;-68
2021/09/19 12:29:33;;;;;;;16.25;11.82;;;17.10;82.30;;;;;;4939939;28;20032;-67
2021/09/19 12:32:01;;;;;;;15.02;10.18;;;17.20;84.20;;;;;;4941992;28;20481;-67
2021/09/19 12:34:27;;;;;;;16.77;10.70;;;17.20;81.90;;;;;;4942499;28;20114;-67
2021/09/19 12:36:55;;;;;;;12.93;9.93;;;17.20;83.30;;;;;;4946525;28;20114;-67
2021/09/19 12:39:23;;;;;;;14.65;10.13;;;17.30;83.60;;;;;;4946588;28;20023;-67
2021/09/19 12:41:51;;;;;;;;;;;17.30;81.80;;;;;;4964013;28;20035;-67
2021/09/19 12:44:22;;;;;;;12.20;9.55;;;17.30;80.60;;;;;;4944955;28;19918;-67